Flight Track Log - Related Links

Times and Time Zones

All times are in EDT time to prevent confusion due to time zone crossing. See the N498QS flight status page for this flight to view local times or setup timezone preferences in your user account.


Time Position Orientation Groundspeed Altitude Reporting Facility
EDT Latitude Longitude Course Direction KTS MPH feet Rate Location/Type
Mon 05:49:39 PM 23.0669 -84.0419 42° Northeast 465 535 41,000  Level Miami Center
Mon 05:50:39 PM 23.1375 -83.9197 58° Northeast 475 547 41,000  Level Miami Center
Mon 05:51:39 PM 23.2161 -83.7975 55° Northeast 480 552 41,000  Level Miami Center
Mon 05:52:39 PM 23.2906 -83.6750 56° Northeast 486 559 41,000  Level Miami Center
Mon 05:53:39 PM 23.3669 -83.5547 55° Northeast 486 559 41,000  Level Miami Center
Mon 05:54:00 PM 25.3503 -81.1220 35° Northeast  Level FlightAware Approximate
Mon 05:54:39 PM 23.4431 -83.4344 55° Northeast 486 559 41,000  Level Miami Center
Mon 05:55:00 PM 25.4261 -81.0573 42° Northeast  Level FlightAware Approximate
Mon 05:55:39 PM 23.5172 -83.3139 56° Northeast 486 559 41,000  Level Miami Center
Mon 05:56:39 PM 23.5911 -83.1931 56° Northeast 486 559 41,000  Level Miami Center
Mon 05:57:39 PM 23.6631 -83.0744 56° Northeast 481 554 41,000  Level Miami Center
Mon 05:58:39 PM 23.7369 -82.9511 57° Northeast 475 547 41,000  Level Miami Center
Mon 06:00:00 PM 23.8169 -82.7985 55° Northeast  Level FlightAware Approximate
Mon 06:00:39 PM 23.8842 -82.7108 55° Northeast 480 552 41,000  Level Miami Center
Mon 06:01:39 PM 23.9581 -82.5847 57° Northeast 480 552 41,000  Level Miami Center
Mon 06:02:39 PM 24.0417 -82.4703 51° Northeast 480 552 41,000  Level Miami Center
Mon 06:03:39 PM 24.1144 -82.3644 53° Northeast 485 558 41,000  Level Miami Center
Mon 06:04:39 PM 24.1572 -82.2275 71° East 468 539 41,000  Level Miami Center
Mon 06:05:39 PM 24.2222 -82.1006 61° Northeast 468 539 41,000  Level Miami Center
Mon 06:06:39 PM 24.2892 -81.9758 59° Northeast 468 539 41,000  Level Miami Center
Mon 06:07:39 PM 24.3042 -81.8419 83° East 447 514 41,000 -150 Level Miami Center
Mon 06:08:39 PM 24.2414 -81.7164 119° Southeast 419 482 40,700 -850 Descending Miami Center
Mon 06:09:39 PM 24.1764 -81.6003 122° Southeast 424 488 39,300 -1,400 Descending Miami Center
Mon 06:10:39 PM 24.1133 -81.4819 120° Southeast 439 505 37,900 -1,150 Descending Miami Center
Mon 06:11:39 PM 24.1278 -81.3436 83° East 420 483 37,000 -450 Descending Miami Center
Mon 06:12:39 PM 24.1717 -81.2086 70° East 433 498 37,000  Level Miami Center
Mon 06:13:39 PM 24.2089 -81.0708 73° East 453 521 37,000 -650 Level Miami Center
Mon 06:14:39 PM 24.2486 -80.9150 74° East 465 535 35,700 -1,350 Descending Miami Center
Mon 06:15:39 PM 24.2858 -80.7750 74° East 471 542 34,300 -1,450 Descending Miami Center
Mon 06:16:39 PM 24.3292 -80.6350 71° East 476 548 32,800 -1,550 Descending Miami Center
Mon 06:17:39 PM 24.3661 -80.4925 74° East 476 548 31,200 -1,450 Descending Miami Center
Mon 06:18:39 PM 24.4047 -80.3681 71° East 476 548 29,900 -1,400 Descending Miami Center
Mon 06:19:39 PM 24.4414 -80.2300 74° East 476 548 28,400 -1,500 Descending Miami Center
Mon 06:20:39 PM 24.4797 -80.0964 72° East 469 540 26,900 -1,500 Descending Miami Center
Mon 06:21:39 PM 24.5161 -79.9650 73° East 457 526 25,400 -950 Descending Miami Center
Mon 06:22:39 PM 24.5542 -79.8403 71° East 446 513 25,000 -500 Descending Miami Center
Mon 06:23:39 PM 24.6169 -79.7228 60° Northeast 440 506 24,400 -800 Descending Miami Center
Mon 06:24:39 PM 24.7269 -79.6592 28° Northeast 417 480 23,400 -1,000 Descending Miami Center
Mon 06:25:39 PM 24.8406 -79.6181 18° North 417 480 22,400 -1,000 Descending Miami Center
Mon 06:26:39 PM 24.9542 -79.5750 19° North 417 480 21,400 -700 Descending Miami Center
Mon 06:27:39 PM 25.0822 -79.5294 18° North 429 494 21,000 -700 Descending Miami Center
Mon 06:28:39 PM 25.1917 -79.4883 19° North 429 494 20,000 -1,700 Descending Miami Center
Mon 06:29:39 PM 25.3011 -79.4469 19° North 423 487 17,600 -2,600 Descending Miami Center
Mon 06:30:39 PM 25.4061 -79.4125 17° North 408 470 14,800 -2,400 Descending Miami Center
Mon 06:31:39 PM 25.5061 -79.4331 349° North 380 437 12,800 -2,168 Descending Miami Center
Mon 06:32:38 PM 25.5825 -79.4828 330° Northwest 329 379 10,500 -2,444 Descending Miami Center
Mon 06:33:27 PM 25.6508 -79.5189 335° Northwest 322 371 8,400 -2,400 Descending Miami Center
Mon 06:34:28 PM 25.7272 -79.5622 333° Northwest 307 353 6,100 -1,131 Descending Miami Center
Mon 06:35:29 PM 25.7956 -79.6028 332° Northwest 252 290 6,100 -46 Level Miami Center
Mon 06:36:39 PM 25.8633 -79.6575 324° Northwest 267 307 6,000 -614 Descending Miami Center
Mon 06:37:36 PM 25.8872 -79.7250 291° West 247 284 4,800 -1,018 Descending Miami Center
Mon 06:38:31 PM 25.9153 -79.7881 296° West 242 278 4,100 -362 Descending Miami Center
Mon 06:39:32 PM 25.9431 -79.8558 295° West 242 278 4,100 -492 Level Miami Center
Mon 06:40:33 PM 25.9711 -79.9211 296° West 236 272 3,100 -492 Descending Miami Center
Mon 06:41:34 PM 25.9861 -79.9933 283° West 230 265 3,100  Level Miami Center
Mon 06:42:35 PM 25.9867 -80.0625 271° West 223 257 3,100  Level Miami Center
Mon 06:43:36 PM 25.9894 -80.1319 273° West 226 260 3,100  Level Miami Center
Mon 06:44:37 PM 25.9900 -80.1992 271° West 225 259 3,100  Level Miami Center
Mon 06:45:38 PM 25.9903 -80.2753 270° West 228 262 3,100  Level Miami Center
Mon 06:46:39 PM 25.9928 -80.3469 272° West 229 264 3,100  Level Miami Center
Mon 06:47:40 PM 26.0272 -80.3942 309° West 198 228 3,100  Level Miami Center
Mon 06:48:41 PM 26.0750 -80.4050 348° North 197 227 3,100  Level Miami Center
Mon 06:49:42 PM 26.0742 -80.3517 91° East 169 194 3,100 -443 Level Miami Center
Mon 06:50:43 PM 26.0753 -80.2986 89° East 176 203 2,200 -844 Descending Miami Center
Mon 06:51:50 PM 26.0747 -80.2383 91° East 173 199 1,300 -844 Descending Miami Center
Mon 06:52:51 PM 26.0739 -80.1875 91° East 158 182 400 -885 Descending Miami Center

Login

Don't have an account? Register now (free) for customized features, flight alerts, and more!